createdAt,value
2019-05-04T00:00:47.586Z,0
2019-05-04T00:01:48.939Z,0
2019-05-04T00:02:50.291Z,0
2019-05-04T00:03:51.651Z,0
2019-05-04T00:04:54.953Z,0
2019-05-04T00:05:54.859Z,0
2019-05-04T00:06:55.626Z,0
2019-05-04T00:07:56.977Z,0
2019-05-04T00:08:58.321Z,0
2019-05-04T00:09:59.676Z,0
2019-05-04T00:11:01.035Z,0
2019-05-04T00:12:02.391Z,0
2019-05-04T00:13:04.824Z,0
2019-05-04T00:14:05.149Z,0
2019-05-04T00:15:06.380Z,0
2019-05-04T00:16:07.733Z,0
2019-05-04T00:17:09.089Z,0
2019-05-04T00:18:10.445Z,0
2019-05-04T00:19:11.798Z,0
2019-05-04T00:20:14.433Z,0
2019-05-04T00:21:14.944Z,0
2019-05-04T00:22:15.790Z,0
2019-05-04T00:23:17.201Z,0
2019-05-04T00:24:18.554Z,0
2019-05-04T00:25:19.900Z,0
2019-05-04T00:26:21.256Z,0
2019-05-04T00:27:24.683Z,0
2019-05-04T00:28:24.991Z,0
2019-05-04T00:29:25.278Z,0
2019-05-04T00:30:26.579Z,0
2019-05-04T00:31:27.924Z,0
2019-05-04T00:32:29.276Z,0
2019-05-04T00:33:30.636Z,0
2019-05-04T00:34:32.001Z,0
2019-05-04T00:35:34.605Z,0
2019-05-04T00:36:35.305Z,0
2019-05-04T00:37:35.983Z,0
2019-05-04T00:38:37.335Z,0
2019-05-04T00:39:38.675Z,0
2019-05-04T00:40:40.015Z,0
2019-05-04T00:41:41.365Z,0
2019-05-04T00:42:42.713Z,0
2019-05-04T00:43:44.779Z,0
2019-05-04T00:44:45.381Z,0
2019-05-04T00:45:46.738Z,0
2019-05-04T00:46:48.087Z,0
2019-05-04T00:47:49.428Z,0
2019-05-04T00:48:50.779Z,0
2019-05-04T00:49:52.129Z,0
2019-05-04T00:50:54.934Z,0
2019-05-04T00:51:54.942Z,0
2019-05-04T00:52:56.164Z,0
2019-05-04T00:53:57.512Z,0
2019-05-04T00:54:58.858Z,0
2019-05-04T00:56:00.202Z,0
2019-05-04T00:57:01.585Z,0
2019-05-04T00:58:04.697Z,0
2019-05-04T00:59:04.683Z,0
2019-05-04T01:00:05.578Z,0
2019-05-04T01:01:06.901Z,0
2019-05-04T01:02:08.249Z,0
2019-05-04T01:03:09.590Z,0
2019-05-04T01:04:10.941Z,0
2019-05-04T01:05:12.287Z,0
2019-05-04T01:06:15.422Z,0
2019-05-04T01:07:20.737Z,0
2019-05-04T01:08:16.275Z,0
2019-05-04T01:09:17.631Z,0
2019-05-04T01:10:18.990Z,0
2019-05-04T01:11:20.334Z,0
2019-05-04T01:12:21.689Z,0
2019-05-04T01:13:24.679Z,0
2019-05-04T01:14:25.423Z,0
2019-05-04T01:15:25.670Z,0
2019-05-04T01:16:27.024Z,0
2019-05-04T01:17:28.371Z,0
2019-05-04T01:18:29.721Z,0
2019-05-04T01:19:31.100Z,0
2019-05-04T01:20:32.445Z,0
2019-05-04T01:21:34.616Z,0
2019-05-04T01:22:35.121Z,0
2019-05-04T01:23:36.464Z,0
2019-05-04T01:24:37.816Z,0
2019-05-04T01:25:39.167Z,0
2019-05-04T01:26:40.515Z,0
2019-05-04T01:27:41.873Z,0
2019-05-04T01:28:45.007Z,0
2019-05-04T01:29:45.437Z,0
2019-05-04T01:30:45.861Z,0
2019-05-04T01:31:47.272Z,0
2019-05-04T01:32:48.617Z,0
2019-05-04T01:33:49.970Z,0
2019-05-04T01:34:51.320Z,0
2019-05-04T01:35:54.363Z,0
2019-05-04T01:36:55.657Z,0
2019-05-04T01:37:56.584Z,0
2019-05-04T01:38:56.622Z,0
2019-05-04T01:39:57.971Z,0
2019-05-04T01:40:59.336Z,0
2019-05-04T01:42:00.681Z,0
2019-05-04T01:43:02.037Z,0
2019-05-04T01:44:04.964Z,0
2019-05-04T01:45:05.189Z,0
2019-05-04T01:46:06.025Z,0
2019-05-04T01:47:07.371Z,0
2019-05-04T01:48:08.729Z,0
2019-05-04T01:49:10.075Z,0
2019-05-04T01:50:11.430Z,0
2019-05-04T01:51:14.646Z,0
2019-05-04T01:52:15.658Z,0
2019-05-04T01:53:15.412Z,0
2019-05-04T01:54:16.767Z,0
2019-05-04T01:55:18.120Z,0
2019-05-04T01:56:19.477Z,0
2019-05-04T01:57:20.832Z,0
2019-05-04T01:58:22.176Z,0
2019-05-04T01:59:24.986Z,0
2019-05-04T02:00:25.833Z,0
2019-05-04T02:01:26.221Z,0
2019-05-04T02:02:27.580Z,0
2019-05-04T02:03:28.921Z,0
2019-05-04T02:04:30.278Z,0
2019-05-04T02:05:31.685Z,0
2019-05-04T02:06:35.168Z,0
2019-05-04T02:07:45.043Z,0
2019-05-04T02:08:35.653Z,0
2019-05-04T02:09:37.016Z,0
2019-05-04T02:10:38.377Z,0
2019-05-04T02:11:39.731Z,0
2019-05-04T02:12:41.081Z,0
2019-05-04T02:13:42.431Z,0
2019-05-04T02:14:44.475Z,0
2019-05-04T02:15:45.094Z,0
2019-05-04T02:16:46.458Z,0
2019-05-04T02:17:47.810Z,0
2019-05-04T02:18:49.156Z,0
2019-05-04T02:19:50.507Z,0
2019-05-04T02:20:51.866Z,0
2019-05-04T02:21:53.214Z,0
2019-05-04T02:22:55.724Z,0
2019-05-04T02:23:55.876Z,0
2019-05-04T02:24:57.237Z,0
2019-05-04T02:25:58.583Z,0
2019-05-04T02:26:59.927Z,0
2019-05-04T02:28:01.276Z,0
2019-05-04T02:29:02.617Z,0
2019-05-04T02:30:06.228Z,0
2019-05-04T02:31:05.572Z,0
2019-05-04T02:32:06.647Z,0
2019-05-04T02:33:07.992Z,0
2019-05-04T02:34:09.351Z,0
2019-05-04T02:35:10.701Z,0
2019-05-04T02:36:12.060Z,0
2019-05-04T02:37:13.388Z,0
2019-05-04T02:38:18.310Z,0
2019-05-04T02:39:16.285Z,0
2019-05-04T02:40:17.391Z,0
2019-05-04T02:41:18.751Z,0
2019-05-04T02:42:20.103Z,0
2019-05-04T02:43:21.444Z,0
2019-05-04T02:44:22.800Z,0
2019-05-04T02:45:26.415Z,0
2019-05-04T02:46:25.464Z,0
2019-05-04T02:47:26.827Z,0
2019-05-04T02:48:28.182Z,0
2019-05-04T02:49:29.523Z,0
2019-05-04T02:50:30.883Z,0
2019-05-04T02:51:32.253Z,0
2019-05-04T02:52:35.549Z,0
2019-05-04T02:53:36.107Z,0
2019-05-04T02:54:36.473Z,0
2019-05-04T02:55:37.557Z,0
2019-05-04T02:56:38.896Z,0
2019-05-04T02:57:40.253Z,0
2019-05-04T02:58:41.593Z,0
2019-05-04T02:59:45.661Z,0
2019-05-04T03:00:45.780Z,0
2019-05-04T03:01:46.104Z,0
2019-05-04T03:02:46.917Z,0
2019-05-04T03:03:48.281Z,0
2019-05-04T03:04:49.601Z,0
2019-05-04T03:05:50.953Z,0
2019-05-04T03:06:52.298Z,0
2019-05-04T03:07:55.571Z,0
2019-05-04T03:08:55.723Z,0
2019-05-04T03:09:56.282Z,0
2019-05-04T03:10:57.644Z,0
2019-05-04T03:11:59.000Z,0
2019-05-04T03:13:00.353Z,0
2019-05-04T03:14:01.687Z,0
2019-05-04T03:15:05.171Z,0
2019-05-04T03:16:05.517Z,0
2019-05-04T03:17:06.374Z,0
2019-05-04T03:18:06.998Z,0
2019-05-04T03:19:08.393Z,0
2019-05-04T03:20:09.656Z,0
2019-05-04T03:21:11.006Z,0
2019-05-04T03:22:15.290Z,0
2019-05-04T03:23:14.961Z,0
2019-05-04T03:24:16.290Z,0
2019-05-04T03:25:16.323Z,0
2019-05-04T03:26:17.674Z,0
2019-05-04T03:27:19.016Z,0
2019-05-04T03:28:20.367Z,0
2019-05-04T03:29:21.738Z,0
2019-05-04T03:30:27.253Z,0
2019-05-04T03:31:28.062Z,0
2019-05-04T03:32:29.331Z,0
2019-05-04T03:33:28.628Z,0
2019-05-04T03:34:53.280Z,0
2019-05-04T03:35:41.661Z,0
2019-05-04T03:36:33.528Z,0
2019-05-04T03:37:32.312Z,0
2019-05-04T03:38:46.403Z,0
2019-05-04T03:39:36.328Z,0
2019-05-04T03:40:36.731Z,0
2019-05-04T03:41:37.612Z,0
2019-05-04T03:42:38.964Z,0
2019-05-04T03:43:40.317Z,0
2019-05-04T03:44:41.669Z,0
2019-05-04T03:45:45.316Z,0
2019-05-04T03:46:46.443Z,0
2019-05-04T03:47:45.935Z,0
2019-05-04T03:48:46.983Z,0
2019-05-04T03:49:48.333Z,0
2019-05-04T03:50:49.689Z,0
2019-05-04T03:51:51.028Z,0
2019-05-04T03:52:55.420Z,0
2019-05-04T03:53:55.534Z,0
2019-05-04T03:54:55.088Z,0
2019-05-04T03:55:56.419Z,0
2019-05-04T03:56:57.648Z,0
2019-05-04T03:57:59.004Z,0
2019-05-04T03:59:00.357Z,0
2019-05-04T04:00:01.709Z,0
2019-05-04T04:01:05.708Z,0
2019-05-04T04:02:05.837Z,0
2019-05-04T04:03:05.939Z,0
2019-05-04T04:04:07.038Z,0
2019-05-04T04:05:08.389Z,0
2019-05-04T04:06:09.749Z,0
2019-05-04T04:07:11.102Z,5
2019-05-04T04:08:12.453Z,5
2019-05-04T04:09:16.309Z,5
2019-05-04T04:10:15.749Z,5
2019-05-04T04:11:16.452Z,5
2019-05-04T04:12:17.805Z,5
2019-05-04T04:13:19.150Z,11
2019-05-04T04:14:20.507Z,11
2019-05-04T04:15:21.863Z,11
2019-05-04T04:16:25.872Z,11
2019-05-04T04:17:25.308Z,11
2019-05-04T04:18:25.842Z,11
2019-05-04T04:19:27.204Z,11
2019-05-04T04:20:28.560Z,5
2019-05-04T04:21:29.955Z,5
2019-05-04T04:22:31.307Z,11
2019-05-04T04:23:35.461Z,11
2019-05-04T04:24:35.589Z,16
2019-05-04T04:25:35.297Z,16
2019-05-04T04:26:36.663Z,16
2019-05-04T04:28:24.931Z,11
2019-05-04T04:29:18.948Z,11
2019-05-04T04:30:20.310Z,11
2019-05-04T04:31:21.653Z,16
2019-05-04T04:32:25.520Z,16
2019-05-04T04:33:25.458Z,16
2019-05-04T04:34:26.251Z,22
2019-05-04T04:35:27.077Z,22
2019-05-04T04:36:28.414Z,16
2019-05-04T04:37:29.760Z,16
2019-05-04T04:38:31.114Z,16
2019-05-04T04:39:38.284Z,16
2019-05-04T04:40:35.621Z,16
2019-05-04T04:41:35.669Z,22
2019-05-04T04:42:36.715Z,22
2019-05-04T04:43:37.782Z,22
2019-05-04T04:44:39.146Z,16
2019-05-04T04:45:40.492Z,16
2019-05-04T04:46:41.840Z,16
2019-05-04T04:47:46.397Z,16
2019-05-04T04:48:46.921Z,16
2019-05-04T04:49:45.840Z,22
2019-05-04T04:50:47.195Z,28
2019-05-04T04:51:48.560Z,33
2019-05-04T04:52:49.918Z,33
2019-05-04T04:53:51.281Z,33
2019-05-04T04:54:53.384Z,39
2019-05-04T04:55:56.336Z,39
2019-05-04T04:56:55.471Z,45
2019-05-04T04:57:57.409Z,45
2019-05-04T04:58:57.968Z,45
2019-05-04T04:59:59.406Z,45
2019-05-04T05:01:01.055Z,39
2019-05-04T05:02:05.216Z,33
2019-05-04T05:03:05.446Z,33
2019-05-04T05:04:06.164Z,33
2019-05-04T05:05:07.483Z,33
2019-05-04T05:06:08.976Z,39
2019-05-04T05:07:10.302Z,33
2019-05-04T05:08:11.680Z,33
2019-05-04T05:09:14.799Z,33
2019-05-04T05:10:15.014Z,33
2019-05-04T05:11:16.238Z,33
2019-05-04T05:12:17.708Z,33
2019-05-04T05:13:19.138Z,33
2019-05-04T05:14:20.649Z,39
2019-05-04T05:15:22.105Z,45
2019-05-04T05:16:25.217Z,50
2019-05-04T05:17:24.810Z,56
2019-05-04T05:18:26.178Z,56
2019-05-04T05:19:27.539Z,56
2019-05-04T05:20:28.893Z,50
2019-05-04T05:21:30.253Z,45
2019-05-04T05:22:31.624Z,45
2019-05-04T05:23:34.871Z,39
2019-05-04T05:24:34.425Z,39
2019-05-04T05:25:35.640Z,33
2019-05-04T05:26:36.978Z,28
2019-05-04T05:27:38.332Z,28
2019-05-04T05:28:39.699Z,33
2019-05-04T05:29:41.058Z,45
2019-05-04T05:30:42.412Z,50
2019-05-04T05:31:44.623Z,50
2019-05-04T05:32:45.099Z,50
2019-05-04T05:33:47.742Z,50
2019-05-04T05:34:47.774Z,45
2019-05-04T05:35:49.128Z,39
2019-05-04T05:36:50.479Z,39
2019-05-04T05:37:51.839Z,39
2019-05-04T05:38:55.622Z,39
2019-05-04T05:40:00.083Z,39
2019-05-04T05:40:55.834Z,45
2019-05-04T05:41:59.587Z,45
2019-05-04T05:42:58.505Z,50
2019-05-04T05:43:59.872Z,50
2019-05-04T05:45:01.238Z,50
2019-05-04T05:46:02.592Z,50
2019-05-04T05:47:04.963Z,50
2019-05-04T05:48:05.271Z,45
2019-05-04T05:49:09.523Z,50
2019-05-04T05:50:09.440Z,50
2019-05-04T05:51:10.053Z,45
2019-05-04T05:52:10.585Z,39
2019-05-04T05:53:17.488Z,39
2019-05-04T05:54:15.216Z,39
2019-05-04T05:55:19.810Z,45
2019-05-04T05:56:15.902Z,45
2019-05-04T05:57:20.046Z,45
2019-05-04T05:58:18.643Z,50
2019-05-04T05:59:24.691Z,45
2019-05-04T06:00:21.321Z,56
2019-05-04T06:01:25.622Z,61
2019-05-04T06:02:25.408Z,73
2019-05-04T06:03:32.097Z,90
2019-05-04T06:04:26.620Z,95
2019-05-04T06:05:31.454Z,78
2019-05-04T06:06:29.294Z,61
2019-05-04T06:07:30.655Z,67
2019-05-04T06:08:32.019Z,61
2019-05-04T06:09:34.619Z,61
2019-05-04T06:10:35.175Z,61
2019-05-04T06:11:38.567Z,61
2019-05-04T06:12:37.314Z,56
2019-05-04T06:13:39.592Z,61
2019-05-04T06:14:39.993Z,67
2019-05-04T06:15:41.352Z,78
2019-05-04T06:16:44.544Z,84
2019-05-04T06:17:47.091Z,73
2019-05-04T06:18:49.785Z,73
2019-05-04T06:19:46.654Z,78
2019-05-04T06:20:49.152Z,106
2019-05-04T06:21:49.331Z,106
2019-05-04T06:22:55.020Z,101
2019-05-04T06:23:54.154Z,118
2019-05-04T06:24:55.811Z,118
2019-05-04T06:25:55.171Z,101
2019-05-04T06:26:59.264Z,101
2019-05-04T06:27:58.711Z,135
2019-05-04T06:29:07.194Z,101
2019-05-04T06:30:01.419Z,67
2019-05-04T06:31:04.468Z,67
2019-05-04T06:32:05.065Z,84
2019-05-04T06:33:12.465Z,90
2019-05-04T06:34:06.765Z,39
2019-05-04T06:35:08.155Z,28
2019-05-04T06:36:09.546Z,50
2019-05-04T06:37:11.094Z,39
2019-05-04T06:38:14.447Z,45
2019-05-04T06:39:14.828Z,61
2019-05-04T06:40:15.204Z,73
2019-05-04T06:41:16.559Z,78
2019-05-04T06:42:18.839Z,101
2019-05-04T06:43:19.451Z,95
2019-05-04T06:44:24.918Z,84
2019-05-04T06:45:21.938Z,90
2019-05-04T06:46:24.826Z,106
2019-05-04T06:47:25.388Z,112
2019-05-04T06:48:31.125Z,90
2019-05-04T06:49:27.293Z,73
2019-05-04T06:50:30.133Z,67
2019-05-04T06:51:30.064Z,61
2019-05-04T06:52:31.394Z,61
2019-05-04T06:53:38.196Z,56
2019-05-04T06:54:39.162Z,61
2019-05-04T06:55:35.659Z,61
2019-05-04T06:56:41.668Z,50
2019-05-04T06:57:44.070Z,61
2019-05-04T06:58:41.927Z,61
2019-05-04T06:59:41.175Z,78
2019-05-04T07:00:44.529Z,78
2019-05-04T07:01:46.105Z,84
2019-05-04T07:02:45.185Z,95
2019-05-04T07:03:49.386Z,95
2019-05-04T07:04:47.862Z,112
2019-05-04T07:05:50.021Z,112
2019-05-04T07:06:50.545Z,123
2019-05-04T07:07:58.900Z,123
2019-05-04T07:08:54.725Z,123
2019-05-04T07:10:00.071Z,129
2019-05-04T07:11:12.417Z,146
2019-05-04T07:12:07.848Z,157
2019-05-04T07:13:08.424Z,163
2019-05-04T07:14:01.850Z,157
2019-05-04T07:15:04.743Z,151
2019-05-04T07:16:04.905Z,191
2019-05-04T07:17:09.500Z,151
2019-05-04T07:18:07.174Z,146
2019-05-04T07:19:10.597Z,168
2019-05-04T07:20:09.850Z,174
2019-05-04T07:21:17.733Z,163
2019-05-04T07:22:12.530Z,163
2019-05-04T07:23:15.898Z,168
2019-05-04T07:24:15.314Z,180
2019-05-04T07:25:17.853Z,174
2019-05-04T07:26:17.840Z,174
2019-05-04T07:27:19.191Z,180
2019-05-04T07:28:20.556Z,196
2019-05-04T07:29:21.916Z,213
2019-05-04T07:30:24.333Z,202
2019-05-04T07:31:24.731Z,163
2019-05-04T07:32:29.322Z,157
2019-05-04T07:33:27.236Z,157
2019-05-04T07:34:32.918Z,157
2019-05-04T07:35:32.063Z,140
2019-05-04T07:36:31.241Z,135
2019-05-04T07:37:43.937Z,140
2019-05-04T07:38:47.757Z,140
2019-05-04T07:39:42.049Z,140
2019-05-04T07:40:36.551Z,151
2019-05-04T07:41:47.734Z,163
2019-05-04T07:42:43.997Z,168
2019-05-04T07:43:45.317Z,163
2019-05-04T07:44:46.603Z,174
2019-05-04T07:45:45.979Z,208
2019-05-04T07:46:49.565Z,236
2019-05-04T07:47:48.725Z,281
2019-05-04T07:48:52.654Z,281
2019-05-04T07:49:51.405Z,275
2019-05-04T07:50:52.756Z,281
2019-05-04T07:51:55.672Z,281
2019-05-04T07:52:59.878Z,281
2019-05-04T07:53:56.742Z,281
2019-05-04T07:54:58.106Z,253
2019-05-04T07:55:59.461Z,236
2019-05-04T07:57:00.807Z,241
2019-05-04T07:58:05.507Z,236
2019-05-04T07:59:04.783Z,225
2019-05-04T08:00:06.563Z,219
2019-05-04T08:01:06.133Z,208
2019-05-04T08:02:08.401Z,208
2019-05-04T08:03:08.800Z,213
2019-05-04T08:04:10.152Z,230
2019-05-04T08:05:23.618Z,264
2019-05-04T08:06:17.734Z,281
2019-05-04T08:07:14.359Z,270
2019-05-04T08:08:16.276Z,337
2019-05-04T08:09:20.640Z,360
2019-05-04T08:10:20.655Z,331
2019-05-04T08:11:19.978Z,360
2019-05-04T08:12:21.330Z,421
2019-05-04T08:13:26.175Z,416
2019-05-04T08:14:24.377Z,455
2019-05-04T08:15:29.403Z,483
2019-05-04T08:16:26.655Z,495
2019-05-04T08:17:29.332Z,534
2019-05-04T08:18:29.359Z,506
2019-05-04T08:19:35.320Z,523
2019-05-04T08:20:32.005Z,556
2019-05-04T08:21:40.365Z,568
2019-05-04T08:22:34.791Z,545
2019-05-04T08:23:40.005Z,596
2019-05-04T08:24:37.340Z,568
2019-05-04T08:25:41.085Z,568
2019-05-04T08:26:40.009Z,607
2019-05-04T08:27:41.363Z,568
2019-05-04T08:28:44.499Z,540
2019-05-04T08:29:45.154Z,585
2019-05-04T08:30:50.162Z,652
2019-05-04T08:31:46.691Z,669
2019-05-04T08:32:49.876Z,742
2019-05-04T08:33:49.377Z,765
2019-05-04T08:34:50.742Z,759
2019-05-04T08:35:54.275Z,759
2019-05-04T08:36:55.524Z,731
2019-05-04T08:37:55.457Z,736
2019-05-04T08:38:56.087Z,725
2019-05-04T08:39:57.427Z,725
2019-05-04T08:40:58.790Z,708
2019-05-04T08:42:06.033Z,736
2019-05-04T08:43:03.803Z,720
2019-05-04T08:44:11.970Z,736
2019-05-04T08:45:05.357Z,731
2019-05-04T08:46:05.447Z,680
2019-05-04T08:47:10.032Z,590
2019-05-04T08:48:08.118Z,579
2019-05-04T08:49:11.985Z,511
2019-05-04T08:50:10.813Z,556
2019-05-04T08:51:12.176Z,540
2019-05-04T08:52:20.985Z,472
2019-05-04T08:53:15.186Z,478
2019-05-04T08:54:19.037Z,483
2019-05-04T08:55:17.510Z,489
2019-05-04T08:56:22.667Z,511
2019-05-04T08:57:20.201Z,523
2019-05-04T08:58:25.127Z,517
2019-05-04T08:59:24.882Z,495
2019-05-04T09:00:30.325Z,511
2019-05-04T09:01:25.551Z,444
2019-05-04T09:02:30.455Z,478
2019-05-04T09:03:28.221Z,472
2019-05-04T09:04:44.469Z,421
2019-05-04T09:05:35.687Z,438
2019-05-04T09:06:36.099Z,444
2019-05-04T09:07:35.245Z,466
2019-05-04T09:08:34.972Z,450
2019-05-04T09:09:36.337Z,382
2019-05-04T09:10:39.507Z,410
2019-05-04T09:11:39.064Z,399
2019-05-04T09:12:43.049Z,382
2019-05-04T09:13:49.089Z,410
2019-05-04T09:14:44.654Z,421
2019-05-04T09:15:44.864Z,388
2019-05-04T09:16:45.616Z,416
2019-05-04T09:17:50.170Z,416
2019-05-04T09:18:48.291Z,427
2019-05-04T09:19:54.020Z,405
2019-05-04T09:20:50.999Z,433
2019-05-04T09:22:16.097Z,455
2019-05-04T09:22:54.171Z,455
2019-05-04T09:23:59.299Z,483
2019-05-04T09:24:56.300Z,517
2019-05-04T09:26:01.924Z,568
2019-05-04T09:26:58.993Z,607
2019-05-04T09:28:09.570Z,601
2019-05-04T09:29:01.686Z,596
2019-05-04T09:30:04.564Z,607
2019-05-04T09:31:04.717Z,742
2019-05-04T09:32:09.576Z,815
2019-05-04T09:33:09.255Z,798
2019-05-04T09:34:08.342Z,736
2019-05-04T09:35:11.540Z,714
2019-05-04T09:36:11.106Z,720
2019-05-04T09:37:16.417Z,765
2019-05-04T09:38:22.155Z,815
2019-05-04T09:39:20.727Z,793
2019-05-04T09:40:16.442Z,849
2019-05-04T09:41:17.793Z,860
2019-05-04T09:42:31.205Z,860
2019-05-04T09:43:21.716Z,821
2019-05-04T09:44:21.808Z,742
2019-05-04T09:45:26.463Z,680
2019-05-04T09:46:24.650Z,618
2019-05-04T09:47:29.241Z,613
2019-05-04T09:48:27.136Z,703
2019-05-04T09:49:28.796Z,765
2019-05-04T09:50:29.817Z,843
2019-05-04T09:51:31.178Z,781
2019-05-04T09:52:32.530Z,680
2019-05-04T09:53:37.015Z,663
2019-05-04T09:54:35.349Z,731
2019-05-04T09:55:40.367Z,675
2019-05-04T09:56:38.024Z,607
2019-05-04T09:57:41.471Z,613
2019-05-04T09:58:40.796Z,641
2019-05-04T09:59:49.792Z,703
2019-05-04T10:00:44.789Z,697
2019-05-04T10:01:59.006Z,663
2019-05-04T10:02:46.132Z,652
2019-05-04T10:03:47.488Z,618
2019-05-04T10:04:48.932Z,613
2019-05-04T10:05:50.299Z,607
2019-05-04T10:06:51.666Z,562
2019-05-04T10:07:54.863Z,506
2019-05-04T10:08:54.997Z,466
2019-05-04T10:09:55.670Z,483
2019-05-04T10:10:57.035Z,545
2019-05-04T10:11:58.381Z,562
2019-05-04T10:12:59.733Z,585
2019-05-04T10:14:01.098Z,652
2019-05-04T10:15:02.448Z,658
2019-05-04T10:16:04.726Z,663
2019-05-04T10:17:05.258Z,691
2019-05-04T10:18:06.454Z,686
2019-05-04T10:19:07.804Z,781
2019-05-04T10:20:09.183Z,793
2019-05-04T10:21:10.557Z,798
2019-05-04T10:22:11.901Z,804
2019-05-04T10:23:15.277Z,798
2019-05-04T10:24:15.614Z,753
2019-05-04T10:25:15.908Z,787
2019-05-04T10:26:17.263Z,956
2019-05-04T10:27:18.623Z,1085
2019-05-04T10:28:19.973Z,1001
2019-05-04T10:29:21.332Z,978
2019-05-04T10:30:24.470Z,1046
2019-05-04T10:31:24.436Z,1096
2019-05-04T10:32:25.343Z,1023
2019-05-04T10:33:26.786Z,950
2019-05-04T10:34:28.137Z,939
2019-05-04T10:35:29.502Z,945
2019-05-04T10:36:30.853Z,961
2019-05-04T10:37:34.186Z,849
2019-05-04T10:39:15.171Z,821
2019-05-04T10:40:15.246Z,855
2019-05-04T10:41:15.783Z,961
2019-05-04T10:42:17.182Z,1018
2019-05-04T10:43:18.537Z,1018
2019-05-04T10:44:19.910Z,1023
2019-05-04T10:45:21.263Z,1046
2019-05-04T10:46:24.895Z,1029
2019-05-04T10:47:24.790Z,1035
2019-05-04T10:48:25.274Z,1012
2019-05-04T10:49:26.651Z,905
2019-05-04T10:50:28.007Z,826
2019-05-04T10:51:29.373Z,765
2019-05-04T10:52:30.787Z,748
2019-05-04T10:53:32.144Z,793
2019-05-04T10:54:34.372Z,804
2019-05-04T10:55:35.314Z,781
2019-05-04T10:56:36.150Z,742
2019-05-04T10:57:37.512Z,680
2019-05-04T10:58:38.954Z,635
2019-05-04T10:59:40.309Z,607
2019-05-04T11:00:41.669Z,573
2019-05-04T11:01:50.454Z,551
2019-05-04T11:02:44.388Z,596
2019-05-04T11:03:45.739Z,646
2019-05-04T11:04:47.097Z,635
2019-05-04T11:05:48.453Z,607
2019-05-04T11:06:49.820Z,551
2019-05-04T11:07:51.190Z,523
2019-05-04T11:08:54.257Z,500
2019-05-04T11:09:54.688Z,450
2019-05-04T11:10:55.793Z,405
2019-05-04T11:11:56.533Z,365
2019-05-04T11:12:57.895Z,348
2019-05-04T11:14:03.645Z,343
2019-05-04T11:15:00.662Z,343
2019-05-04T11:16:02.010Z,365
2019-05-04T11:17:04.731Z,427
2019-05-04T11:18:05.156Z,461
2019-05-04T11:19:07.823Z,461
2019-05-04T11:20:07.348Z,444
2019-05-04T11:21:08.715Z,466
2019-05-04T11:22:10.169Z,472
2019-05-04T11:23:11.523Z,472
2019-05-04T11:24:14.235Z,450
2019-05-04T11:25:14.951Z,433
2019-05-04T11:26:15.527Z,427
2019-05-04T11:27:16.893Z,438
2019-05-04T11:28:18.258Z,444
2019-05-04T11:29:19.615Z,450
2019-05-04T11:30:20.969Z,450
2019-05-04T11:31:24.428Z,455
2019-05-04T11:32:23.687Z,444
2019-05-04T11:33:25.038Z,427
2019-05-04T11:34:26.398Z,433
2019-05-04T11:35:27.751Z,489
2019-05-04T11:36:29.104Z,568
2019-05-04T11:37:30.474Z,624
2019-05-04T11:38:31.822Z,663
2019-05-04T11:39:34.596Z,691
2019-05-04T11:40:35.058Z,714
2019-05-04T11:41:35.815Z,753
2019-05-04T11:42:37.180Z,798
2019-05-04T11:43:38.552Z,843
2019-05-04T11:44:39.904Z,916
2019-05-04T11:45:41.270Z,967
2019-05-04T11:46:54.571Z,1006
2019-05-04T11:47:44.659Z,984
2019-05-04T11:48:45.284Z,928
2019-05-04T11:49:46.816Z,888
2019-05-04T11:50:48.172Z,866
2019-05-04T11:51:49.538Z,866
2019-05-04T11:52:50.884Z,888
2019-05-04T11:53:54.464Z,922
2019-05-04T11:54:54.927Z,928
2019-05-04T11:55:54.906Z,933
2019-05-04T11:56:56.265Z,950
2019-05-04T11:57:57.628Z,990
2019-05-04T11:58:58.979Z,1012
2019-05-04T12:00:00.340Z,1012
2019-05-04T12:01:01.714Z,1012
2019-05-04T12:02:04.715Z,1023
2019-05-04T12:03:04.992Z,1012
2019-05-04T12:04:07.966Z,1018
2019-05-04T12:05:07.045Z,961
2019-05-04T12:06:08.402Z,905
2019-05-04T12:07:09.759Z,826
2019-05-04T12:08:11.120Z,770
2019-05-04T12:09:12.523Z,748
2019-05-04T12:10:14.946Z,725
2019-05-04T12:11:15.176Z,725
2019-05-04T12:12:16.625Z,770
2019-05-04T12:13:17.975Z,866
2019-05-04T12:14:19.351Z,984
2019-05-04T12:15:20.706Z,1068
2019-05-04T12:16:22.125Z,1080
2019-05-04T12:17:24.584Z,1063
2019-05-04T12:18:24.950Z,1035
2019-05-04T12:19:26.288Z,1023
2019-05-04T12:20:27.643Z,995
2019-05-04T12:21:29.029Z,956
2019-05-04T12:22:30.404Z,945
2019-05-04T12:23:31.770Z,945
2019-05-04T12:24:34.880Z,945
2019-05-04T12:25:34.738Z,961
2019-05-04T12:26:35.799Z,961
2019-05-04T12:27:37.164Z,961
2019-05-04T12:28:38.524Z,950
2019-05-04T12:29:39.881Z,950
2019-05-04T12:30:41.244Z,945
2019-05-04T12:31:44.203Z,939
2019-05-04T12:32:45.206Z,933
2019-05-04T12:33:45.254Z,928
2019-05-04T12:34:46.623Z,933
2019-05-04T12:35:47.985Z,933
2019-05-04T12:36:49.349Z,933
2019-05-04T12:37:50.831Z,956
2019-05-04T12:38:52.189Z,1001
2019-05-04T12:39:54.624Z,1006
2019-05-04T12:40:56.158Z,1029
2019-05-04T12:42:00.174Z,984
2019-05-04T12:43:03.460Z,877
2019-05-04T12:44:02.855Z,781
2019-05-04T12:45:04.684Z,759
2019-05-04T12:46:05.568Z,776
2019-05-04T12:47:06.921Z,781
2019-05-04T12:48:08.298Z,725
2019-05-04T12:49:09.670Z,635
2019-05-04T12:50:11.025Z,534
2019-05-04T12:51:12.384Z,450
2019-05-04T12:52:15.099Z,376
2019-05-04T12:53:15.057Z,331
2019-05-04T12:54:16.419Z,320
2019-05-04T12:55:17.775Z,309
2019-05-04T12:56:19.135Z,298
2019-05-04T12:57:20.500Z,281
2019-05-04T12:58:21.859Z,264
2019-05-04T12:59:23.214Z,270
2019-05-04T13:00:25.568Z,286
2019-05-04T13:01:25.895Z,326
2019-05-04T13:02:27.254Z,348
2019-05-04T13:03:28.621Z,315
2019-05-04T13:04:29.981Z,281
2019-05-04T13:05:31.584Z,258
2019-05-04T13:06:34.601Z,264
2019-05-04T13:07:35.262Z,270
2019-05-04T13:08:35.400Z,258
2019-05-04T13:09:36.751Z,247
2019-05-04T13:10:38.114Z,264
2019-05-04T13:11:39.479Z,309
2019-05-04T13:12:40.845Z,348
2019-05-04T13:13:42.216Z,399
2019-05-04T13:14:44.366Z,478
2019-05-04T13:15:46.002Z,540
2019-05-04T13:16:46.225Z,500
2019-05-04T13:17:47.591Z,416
2019-05-04T13:18:48.901Z,343
2019-05-04T13:19:50.253Z,298
2019-05-04T13:20:52.356Z,298
2019-05-04T13:21:54.758Z,320
2019-05-04T13:22:55.535Z,343
2019-05-04T13:23:55.596Z,337
2019-05-04T13:24:56.945Z,303
2019-05-04T13:25:58.309Z,281
2019-05-04T13:26:59.669Z,286
2019-05-04T13:28:01.018Z,298
2019-05-04T13:29:02.956Z,331
2019-05-04T13:30:04.611Z,399
2019-05-04T13:31:05.147Z,495
2019-05-04T13:32:06.369Z,556
2019-05-04T13:33:07.843Z,585
2019-05-04T13:34:09.217Z,601
2019-05-04T13:35:10.568Z,618
2019-05-04T13:36:12.030Z,630
2019-05-04T13:37:14.400Z,635
2019-05-04T13:38:14.764Z,630
2019-05-04T13:39:16.109Z,635
2019-05-04T13:40:17.471Z,663
2019-05-04T13:41:18.838Z,708
2019-05-04T13:42:20.192Z,731
2019-05-04T13:43:21.555Z,748
2019-05-04T13:44:29.815Z,748
2019-05-04T13:45:25.319Z,731
2019-05-04T13:46:25.694Z,720
2019-05-04T13:47:26.925Z,714
2019-05-04T13:48:28.296Z,703
2019-05-04T13:49:29.652Z,691
2019-05-04T13:50:31.017Z,680
2019-05-04T13:51:32.374Z,675
2019-05-04T13:52:35.208Z,669
2019-05-04T13:53:35.101Z,658
2019-05-04T13:54:36.461Z,646
2019-05-04T13:55:37.821Z,646
2019-05-04T13:56:39.185Z,658
2019-05-04T13:57:40.540Z,686
2019-05-04T13:58:41.901Z,725
2019-05-04T13:59:43.280Z,753
2019-05-04T14:00:44.642Z,765
2019-05-04T14:01:46.010Z,759
2019-05-04T14:02:47.366Z,742
2019-05-04T14:03:48.814Z,725
2019-05-04T14:04:50.179Z,708
2019-05-04T14:05:53.295Z,708
2019-05-04T14:06:55.052Z,720
2019-05-04T14:07:54.516Z,731
2019-05-04T14:08:55.507Z,753
2019-05-04T14:09:56.869Z,753
2019-05-04T14:11:10.685Z,742
2019-05-04T14:11:59.560Z,703
2019-05-04T14:13:00.953Z,658
2019-05-04T14:14:02.322Z,618
2019-05-04T14:15:03.684Z,596
2019-05-04T14:16:05.546Z,601
2019-05-04T14:17:06.377Z,635
2019-05-04T14:18:07.746Z,658
2019-05-04T14:19:09.100Z,663
2019-05-04T14:20:10.479Z,658
2019-05-04T14:21:11.840Z,658
2019-05-04T14:22:14.910Z,663
2019-05-04T14:23:15.168Z,669
2019-05-04T14:24:15.844Z,691
2019-05-04T14:25:17.211Z,714
2019-05-04T14:26:18.589Z,720
2019-05-04T14:27:19.975Z,720
2019-05-04T14:28:21.343Z,708